Latest Weather Observations for Burketown Airport

IDQ60801

Issued at 6:32 pm EST Wednesday 22 February 2017 (issued every 30 minutes, with the page automatically refreshed every 10 minutes)

About weather observations | Map of weather stations | Latest weather observations for QLD | Other Formats
Station Details ID: 029077 Name: BURKETOWN AIRPORT Lat: -17.75 Lon: 139.54 Height: 5.7 m
Data from the previous 72 hours. | See also: Recent months at Burketown Airport
Date/Time
EST
Temp
°C
App
Temp
°C
Dew
Point
°C
Rel
Hum
%
Delta-T
°C
Wind Press
QNH
hPa
Press
MSL
hPa
Rain since
9am
mm
Dir  Spd
km/h
Gust
km/h
Spd
kts
Gust
kts
22/06:30pm 24.0 24.1 24.0 100 0.0 NE 30 41 16 22 1007.8 - 50.0
22/06:00pm 23.9 24.4 23.9 100 0.0 NE 28 39 15 21 1007.4 1007.3 48.6
22/05:30pm 23.4 21.5 23.4 100 0.0 NE 39 54 21 29 1007.0 - 47.0
22/05:17pm 23.4 22.8 23.4 100 0.0 NNE 32 52 17 28 1007.0 - 45.4
22/05:00pm 23.5 23.4 23.5 100 0.0 NNE 30 39 16 21 1007.1 - 44.6
22/04:30pm 23.9 23.4 23.9 100 0.0 NNE 33 50 18 27 1007.6 - 44.4
22/04:00pm 24.1 25.4 24.1 100 0.0 ENE 24 32 13 17 1007.7 - 44.2
22/03:30pm 23.7 24.1 23.7 100 0.0 ENE 28 39 15 21 1007.7 - 43.6
22/03:00pm 23.6 23.9 23.6 100 0.0 ENE 28 37 15 20 1008.3 1008.2 43.0
22/02:30pm 23.8 25.9 23.8 100 0.0 ENE 19 28 10 15 1008.4 - 42.4
22/02:00pm 23.6 25.0 23.6 100 0.0 E 22 30 12 16 1008.9 - 40.2
22/01:30pm 23.8 26.7 23.8 100 0.0 E 15 20 8 11 1009.3 - 36.0
22/01:00pm 23.9 26.1 23.9 100 0.0 E 19 22 10 12 1009.5 - 34.6
22/12:30pm 23.8 23.8 23.8 100 0.0 E 30 39 16 21 1010.0 - 33.0
22/12:00pm 24.4 25.2 24.4 100 0.0 E 28 35 15 19 1009.8 1009.7 28.8
22/11:30am 24.3 25.8 24.3 100 0.0 ESE 24 30 13 16 1009.7 - 27.2
22/11:00am 24.0 25.7 24.0 100 0.0 ESE 22 28 12 15 1010.2 - 24.8
22/10:30am 23.8 27.4 23.8 100 0.0 ESE 11 17 6 9 1010.2 - 22.0
22/10:00am 23.8 27.4 23.8 100 0.0 SSE 11 15 6 8 1010.5 - 17.2
22/09:30am 24.1 26.2 24.1 100 0.0 ESE 20 30 11 16 1010.5 - 8.6
22/09:00am 24.1 26.4 24.1 100 0.0 E 19 26 10 14 1010.3 1010.2 107.8
22/08:30am 23.9 24.8 23.9 100 0.0 ESE 26 33 14 18 1009.3 - 104.0
22/08:00am 23.8 26.3 23.8 100 0.0 E 17 22 9 12 1009.5 - 94.6
22/07:30am 23.9 25.1 23.9 100 0.0 SE 24 32 13 17 1008.9 - 78.0
22/07:00am 23.9 26.5 23.9 100 0.0 SSE 17 24 9 13 1009.0 - 68.6
22/06:30am 23.8 25.9 23.8 100 0.0 SE 19 24 10 13 1008.7 - 64.4
22/06:00am 23.6 25.6 23.6 100 0.0 ESE 19 24 10 13 1008.3 1008.2 60.6
22/05:30am 23.1 24.8 23.1 100 0.0 SE 19 22 10 12 1008.1 - 60.0
22/05:00am 23.3 25.5 23.3 100 0.0 SSE 17 24 9 13 1008.0 - 59.2
22/04:30am 23.2 24.4 23.2 100 0.0 SSE 22 30 12 16 1007.7 - 59.0
22/04:00am 23.9 25.5 23.9 100 0.0 SE 22 28 12 15 1007.7 - 58.0
22/03:30am 23.8 25.4 23.8 100 0.0 ESE 22 28 12 15 1007.7 - 57.0
22/03:00am 23.7 24.8 23.7 100 0.0 ESE 24 35 13 19 1008.0 1007.9 55.8
22/02:30am 24.1 25.4 24.1 100 0.0 SE 24 32 13 17 1008.1 - 55.0
22/02:00am 24.1 26.4 24.1 100 0.0 SE 19 24 10 13 1008.4 - 54.6
22/01:30am 24.3 26.5 24.3 100 0.0 SE 20 26 11 14 1008.8 - 54.6
22/01:00am 24.3 27.1 24.3 100 0.0 ESE 17 24 9 13 1009.1 - 54.6
22/12:30am 24.5 27.4 24.5 100 0.0 SE 17 22 9 12 1009.4 - 54.6
22/12:00am 24.5 28.2 24.5 100 0.0 SE 13 19 7 10 1009.7 1009.6 54.6
 
Date/Time
EST
Temp
°C
App
Temp
°C
Dew
Point
°C
Rel
Hum
%
Delta-T
°C
Wind Press
QNH
hPa
Press
MSL
hPa
Rain since
9am
mm
Dir  Spd
km/h
Gust
km/h
Spd
kts
Gust
kts
21/11:30pm 24.7 27.2 24.7 100 0.0 ESE 20 30 11 16 1010.0 - 54.6
21/11:00pm 24.9 29.2 24.9 100 0.0 ENE 11 22 6 12 1009.9 - 54.0
21/10:30pm 24.6 27.6 24.6 100 0.0 SSE 17 24 9 13 1009.4 - 33.0
21/10:00pm 24.6 27.0 24.6 100 0.0 SSE 20 26 11 14 1009.4 - 32.0
21/09:30pm 24.8 28.3 24.8 100 0.0 SE 15 19 8 10 1009.5 - 25.6
21/09:00pm 24.8 27.9 24.8 100 0.0 SE 17 22 9 12 1009.1 1009.0 22.4
21/08:30pm 24.7 28.1 24.7 100 0.0 ESE 15 19 8 10 1008.9 - 20.0
21/08:00pm 24.7 28.5 24.7 100 0.0 SSE 13 17 7 9 1008.9 - 20.0
21/07:30pm 25.0 29.4 25.0 100 0.0 SSE 11 13 6 7 1008.9 - 20.0
21/07:00pm 25.1 29.5 25.1 100 0.0 S 11 15 6 8 1008.6 - 20.0
21/06:30pm 24.9 28.8 24.9 100 0.0 S 13 19 7 10 1007.2 - 20.0
21/06:00pm 24.1 28.3 24.1 100 0.0 ESE 9 13 5 7 1007.0 1006.9 19.8
21/05:30pm 23.8 27.7 23.6 99 0.1 NE 9 13 5 7 1007.0 - 18.6
21/05:00pm 24.2 25.5 24.0 99 0.1 NE 24 39 13 21 1007.2 - 16.8
21/04:30pm 25.3 28.1 25.3 100 0.0 ESE 20 26 11 14 1007.0 - 15.0
21/04:00pm 25.4 28.5 25.4 100 0.0 E 19 24 10 13 1006.9 - 13.8
21/03:30pm 25.6 27.4 24.9 96 0.5 E 24 33 13 18 1006.4 - 13.4
21/03:00pm 26.1 28.1 25.1 94 0.7 E 24 33 13 18 1007.2 1007.1 13.4
21/02:30pm 26.2 28.2 24.6 91 1.1 ESE 22 30 12 16 1007.8 - 13.4
21/02:00pm 26.4 27.2 24.4 89 1.4 ESE 28 37 15 20 1008.0 - 13.4
21/01:30pm 26.8 26.9 24.6 88 1.5 ESE 32 44 17 24 1008.3 - 13.4
21/01:00pm 25.9 26.6 24.3 91 1.1 ESE 28 41 15 22 1008.9 - 13.2
21/12:30pm 25.0 25.4 24.5 97 0.3 SE 30 39 16 21 1009.2 - 13.2
21/12:00pm 24.2 25.2 24.2 100 0.0 ESE 26 33 14 18 1009.7 1009.6 13.2
21/11:30am 23.5 24.5 23.5 100 0.0 ESE 24 35 13 19 1009.8 - 13.2
21/11:00am 22.8 23.0 22.8 100 0.0 SE 26 33 14 18 1010.1 - 13.2
21/10:30am 22.6 22.3 22.6 100 0.0 SE 28 39 15 21 1010.2 - 12.4
21/10:00am 22.4 22.0 22.4 100 0.0 SSE 28 35 15 19 1010.2 - 12.4
21/09:30am 22.1 23.1 22.1 100 0.0 SE 20 28 11 15 1010.5 - 10.8
21/09:00am 22.3 22.6 22.3 100 0.0 ESE 24 30 13 16 1010.2 1010.1 65.8
21/08:30am 22.6 23.5 22.6 100 0.0 SE 22 28 12 15 1009.6 - 62.8
21/08:00am 22.8 23.8 22.8 100 0.0 SE 22 32 12 17 1009.3 - 61.0
21/07:30am 22.9 22.4 22.9 100 0.0 ESE 30 37 16 20 1008.1 - 60.8
21/07:00am 22.9 23.2 22.9 100 0.0 ESE 26 41 14 22 1007.8 - 60.4
21/06:30am 23.0 22.8 22.7 98 0.2 ESE 28 41 15 22 1007.5 - 59.6
21/06:00am 23.2 23.1 22.9 98 0.2 ESE 28 41 15 22 1007.0 1006.9 59.4
21/05:30am 23.0 22.1 22.8 99 0.1 ESE 32 43 17 23 1007.1 - 59.4
21/05:00am 22.6 23.1 22.6 100 0.0 ESE 24 32 13 17 1007.0 - 59.4
21/04:30am 22.8 21.4 22.0 95 0.5 ESE 32 41 17 22 1006.6 - 59.4
21/04:00am 22.8 22.0 21.6 93 0.8 ESE 28 39 15 21 1006.7 - 59.4
21/03:30am 22.9 21.0 21.4 91 1.0 ESE 33 46 18 25 1006.8 - 59.4
21/03:00am 22.5 21.2 21.3 93 0.8 ESE 30 37 16 20 1007.0 1006.9 59.4
21/02:30am 22.7 21.5 21.5 93 0.8 ESE 30 37 16 20 1007.1 - 59.4
21/02:00am 22.6 21.3 21.4 93 0.8 ESE 30 43 16 23 1007.3 - 59.4
21/01:30am 22.6 21.3 21.4 93 0.8 ESE 30 41 16 22 1007.4 - 59.4
21/01:00am 22.6 21.3 21.4 93 0.8 ESE 30 39 16 21 1007.7 - 59.4
21/12:30am 22.4 21.2 21.6 95 0.5 SE 30 44 16 24 1007.9 - 59.4
21/12:00am 22.2 20.2 21.2 94 0.7 SE 33 43 18 23 1008.2 1008.1 59.4
 
Date/Time
EST
Temp
°C
App
Temp
°C
Dew
Point
°C
Rel
Hum
%
Delta-T
°C
Wind Press
QNH
hPa
Press
MSL
hPa
Rain since
9am
mm
Dir  Spd
km/h
Gust
km/h
Spd
kts
Gust
kts
20/11:30pm 22.0 20.6 21.2 95 0.5 SE 30 39 16 21 1009.1 - 59.4
20/11:01pm 21.9 19.4 20.9 94 0.7 SE 35 54 19 29 1009.4 - 59.4
20/11:00pm 21.9 19.0 20.9 94 0.7 SE 37 54 20 29 1009.4 - 59.4
20/10:54pm 21.9 19.4 20.9 94 0.7 SE 35 54 19 29 1009.2 - 59.4
20/10:30pm 21.9 19.5 21.1 95 0.5 SE 35 44 19 24 1009.2 - 59.4
20/10:00pm 21.5 19.2 21.3 99 0.1 SE 35 50 19 27 1009.1 - 59.4
20/09:30pm 21.8 20.0 21.6 99 0.1 SSE 33 46 18 25 1008.9 - 59.4
20/09:00pm 21.7 20.0 21.7 100 0.0 SSE 33 50 18 27 1009.0 1008.9 59.4
20/08:35pm 21.7 20.2 21.7 100 0.0 SSE 32 50 17 27 1008.9 - 59.4
20/08:30pm 21.6 20.4 21.6 100 0.0 SSE 30 41 16 22 1009.1 - 59.4
20/08:00pm 21.8 21.1 21.8 100 0.0 SSE 28 43 15 23 1009.2 - 54.4
20/07:30pm 21.6 19.5 21.6 100 0.0 SSE 35 46 19 25 1007.8 - 54.2
20/07:00pm 21.5 19.3 21.5 100 0.0 SSE 35 46 19 25 1007.3 - 53.6
20/06:55pm 21.6 20.0 21.6 100 0.0 SSE 32 46 17 25 1007.6 - 53.4
20/06:30pm 21.9 23.0 21.9 100 0.0 S 19 28 10 15 1008.3 - 47.6
20/06:00pm 22.2 21.3 22.2 100 0.0 SSE 30 39 16 21 1006.9 1006.8 44.8
20/05:30pm 22.1 20.2 22.1 100 0.0 SSE 35 50 19 27 1006.2 - 43.0
20/05:00pm 21.9 21.3 21.9 100 0.0 S 28 37 15 20 1006.8 - 38.8
20/04:30pm 22.7 22.5 22.7 100 0.0 S 28 35 15 19 1006.3 - 35.2
20/04:00pm 24.1 24.3 24.1 100 0.0 S 30 41 16 22 1005.6 - 31.2
20/03:30pm 24.5 25.3 24.5 100 0.0 S 28 39 15 21 1005.9 - 27.6
20/03:00pm 24.4 24.8 24.4 100 0.0 SSE 30 43 16 23 1005.9 1005.8 25.4
20/02:50pm 24.4 25.2 24.4 100 0.0 SSE 28 46 15 25 1005.8 - 24.4
20/02:30pm 24.6 26.3 24.6 100 0.0 SSE 24 33 13 18 1006.8 - 21.6
20/02:00pm 24.7 27.4 24.7 100 0.0 SSE 19 24 10 13 1007.3 - 17.0
20/01:30pm 24.8 27.5 24.8 100 0.0 SE 19 26 10 14 1007.8 - 13.2
20/01:00pm 24.9 27.7 24.9 100 0.0 SE 19 26 10 14 1007.9 - 8.2
20/12:30pm 25.1 27.4 25.1 100 0.0 SE 22 28 12 15 1007.9 - 5.8
20/12:00pm 24.9 27.7 24.9 100 0.0 SE 19 26 10 14 1008.5 1008.4 4.6
20/11:30am 24.9 27.7 24.9 100 0.0 SE 19 26 10 14 1008.5 - 2.8
20/11:00am 24.9 28.4 24.9 100 0.0 SE 15 20 8 11 1009.2 - 1.8
20/10:30am 24.8 29.0 24.8 100 0.0 E 11 15 6 8 1009.3 - 0.6
20/10:00am 24.6 27.6 24.6 100 0.0 SE 17 22 9 12 1008.2 - 0.4
20/09:30am 24.7 27.7 24.7 100 0.0 SE 17 24 9 13 1008.4 - 0.0
20/09:00am 24.4 27.3 24.4 100 0.0 SSE 17 22 9 12 1008.1 1008.0 27.6
20/08:30am 24.2 27.3 24.2 100 0.0 SSE 15 19 8 10 1008.6 - 27.6
20/08:00am 24.1 28.3 24.1 100 0.0 SSE 9 11 5 6 1008.7 - 27.4
20/07:30am 24.1 27.9 24.1 100 0.0 SE 11 15 6 8 1008.4 - 27.2
20/07:00am 24.2 27.3 24.2 100 0.0 SE 15 19 8 10 1007.9 - 27.0
20/06:30am 24.2 26.9 24.2 100 0.0 ESE 17 22 9 12 1007.6 - 26.2
20/06:00am 24.2 26.6 24.2 100 0.0 E 19 24 10 13 1007.6 1007.5 25.6
20/05:30am 24.0 26.6 24.0 100 0.0 E 17 20 9 11 1007.3 - 24.0
20/05:00am 23.9 26.8 23.9 100 0.0 ESE 15 20 8 11 1006.8 - 22.6
20/04:30am 24.0 27.4 24.0 100 0.0 E 13 19 7 10 1007.1 - 22.2
20/04:00am 24.1 27.2 24.1 100 0.0 E 15 19 8 10 1006.9 - 21.2
20/03:30am 23.9 27.2 23.9 100 0.0 SE 13 24 7 13 1006.8 - 21.2
20/03:00am 23.9 26.8 23.9 100 0.0 ESE 15 19 8 10 1006.9 1006.8 21.2
20/02:30am 23.8 26.2 23.6 99 0.1 ESE 17 20 9 11 1006.8 - 21.0
20/02:00am 24.0 25.6 23.3 96 0.5 E 20 26 11 14 1007.0 - 21.0
20/01:30am 24.1 25.8 23.4 96 0.5 E 20 26 11 14 1007.0 - 20.8
20/01:00am 24.2 26.6 23.7 97 0.3 E 17 24 9 13 1007.4 - 20.8
20/12:30am 24.1 25.8 24.1 100 0.0 E 22 28 12 15 1007.8 - 20.8
20/12:00am 24.1 27.2 24.1 100 0.0 ESE 15 20 8 11 1008.1 1008.0 20.8
 
Date/Time
EST
Temp
°C
App
Temp
°C
Dew
Point
°C
Rel
Hum
%
Delta-T
°C
Wind Press
QNH
hPa
Press
MSL
hPa
Rain since
9am
mm
Dir  Spd
km/h
Gust
km/h
Spd
kts
Gust
kts
19/11:30pm 24.1 27.5 24.1 100 0.0 ESE 13 19 7 10 1008.4 - 20.6
19/11:00pm 24.2 27.7 24.2 100 0.0 E 13 17 7 9 1009.1 - 20.4
19/10:30pm 24.3 26.7 24.3 100 0.0 ESE 19 26 10 14 1008.9 - 20.0
19/10:00pm 24.4 26.7 24.4 100 0.0 ESE 20 26 11 14 1008.6 - 19.8
19/09:30pm 24.3 27.1 24.3 100 0.0 SE 17 20 9 11 1008.8 - 19.6
19/09:00pm 24.4 27.3 24.4 100 0.0 SE 17 20 9 11 1008.7 1008.6 19.6
19/08:30pm 24.5 28.6 24.5 100 0.0 S 11 13 6 7 1008.8 - 19.2
19/08:00pm 24.4 28.0 24.4 100 0.0 SSE 13 17 7 9 1008.5 - 18.6
19/07:30pm 24.4 28.4 24.4 100 0.0 ESE 11 15 6 8 1008.0 - 18.6
19/07:00pm 24.5 27.8 24.5 100 0.0 SE 15 19 8 10 1007.5 - 18.4

Other Formats:

Comma delimited format used in spreadsheet applications
http://www.bom.gov.au/fwo/IDQ60801/IDQ60801.94260.axf

JavaScript Object Notation format (JSON) in row-major order
http://www.bom.gov.au/fwo/IDQ60801/IDQ60801.94260.json